sensor_id;sensor_type;location;lat;lon;timestamp;pressure;altitude;pressure_sealevel;temperature;humidity
6144;BME280;3103;49.492;8.474;2024-03-02T00:00:08;99321.47;;;9.16;88.29
6144;BME280;3103;49.492;8.474;2024-03-02T00:02:43;99320.97;;;9.19;87.79
6144;BME280;3103;49.492;8.474;2024-03-02T00:05:12;99317.41;;;9.09;87.95
6144;BME280;3103;49.492;8.474;2024-03-02T00:07:41;99314.81;;;8.87;88.62
6144;BME280;3103;49.492;8.474;2024-03-02T00:10:10;99306.84;;;8.65;89.50
6144;BME280;3103;49.492;8.474;2024-03-02T00:12:39;99308.88;;;8.53;90.71
6144;BME280;3103;49.492;8.474;2024-03-02T00:18:12;99306.56;;;8.61;91.16
6144;BME280;3103;49.492;8.474;2024-03-02T00:20:40;99307.22;;;8.47;90.81
6144;BME280;3103;49.492;8.474;2024-03-02T00:23:09;99305.25;;;8.37;91.28
6144;BME280;3103;49.492;8.474;2024-03-02T00:25:42;99301.91;;;8.30;91.97
6144;BME280;3103;49.492;8.474;2024-03-02T00:28:18;99297.91;;;8.54;91.67
6144;BME280;3103;49.492;8.474;2024-03-02T00:31:07;99306.41;;;8.73;91.03
6144;BME280;3103;49.492;8.474;2024-03-02T00:33:42;99312.88;;;8.82;89.63
6144;BME280;3103;49.492;8.474;2024-03-02T00:36:12;99309.13;;;8.29;90.24
6144;BME280;3103;49.492;8.474;2024-03-02T00:38:44;99306.13;;;8.21;91.24
6144;BME280;3103;49.492;8.474;2024-03-02T00:41:22;99309.34;;;8.45;90.52
6144;BME280;3103;49.492;8.474;2024-03-02T00:44:00;99316.34;;;8.29;90.95
6144;BME280;3103;49.492;8.474;2024-03-02T00:46:29;99321.41;;;8.25;91.12
6144;BME280;3103;49.492;8.474;2024-03-02T00:49:01;99318.19;;;8.23;91.05
6144;BME280;3103;49.492;8.474;2024-03-02T00:51:31;99314.88;;;8.38;90.40
6144;BME280;3103;49.492;8.474;2024-03-02T00:54:04;99319.34;;;8.32;90.66
6144;BME280;3103;49.492;8.474;2024-03-02T00:56:32;99322.50;;;8.29;90.09
6144;BME280;3103;49.492;8.474;2024-03-02T00:59:00;99320.97;;;8.33;90.38
6144;BME280;3103;49.492;8.474;2024-03-02T01:01:27;99332.84;;;8.43;89.81
6144;BME280;3103;49.492;8.474;2024-03-02T01:03:54;99329.13;;;8.44;90.16
6144;BME280;3103;49.492;8.474;2024-03-02T01:06:22;99329.19;;;8.49;90.57
6144;BME280;3103;49.492;8.474;2024-03-02T01:08:49;99328.16;;;8.55;89.82
6144;BME280;3103;49.492;8.474;2024-03-02T01:11:19;99334.28;;;8.28;90.31
6144;BME280;3103;49.492;8.474;2024-03-02T01:13:49;99321.78;;;8.12;91.31
6144;BME280;3103;49.492;8.474;2024-03-02T01:16:16;99326.44;;;8.44;90.86
6144;BME280;3103;49.492;8.474;2024-03-02T01:18:43;99329.44;;;8.25;90.60
6144;BME280;3103;49.492;8.474;2024-03-02T01:21:10;99329.13;;;8.44;90.53
6144;BME280;3103;49.492;8.474;2024-03-02T01:23:37;99327.75;;;8.41;90.29
6144;BME280;3103;49.492;8.474;2024-03-02T01:26:04;99322.91;;;8.16;90.31
6144;BME280;3103;49.492;8.474;2024-03-02T01:28:31;99314.88;;;8.38;90.44
6144;BME280;3103;49.492;8.474;2024-03-02T01:30:58;99315.59;;;8.55;89.52
6144;BME280;3103;49.492;8.474;2024-03-02T01:33:25;99309.53;;;8.16;90.13
6144;BME280;3103;49.492;8.474;2024-03-02T01:35:52;99309.38;;;8.28;89.99
6144;BME280;3103;49.492;8.474;2024-03-02T01:38:19;99308.28;;;8.24;90.24
6144;BME280;3103;49.492;8.474;2024-03-02T01:40:47;99304.25;;;8.21;89.99
6144;BME280;3103;49.492;8.474;2024-03-02T01:43:13;99301.50;;;8.16;90.10
6144;BME280;3103;49.492;8.474;2024-03-02T01:45:41;99295.16;;;8.22;90.23
6144;BME280;3103;49.492;8.474;2024-03-02T01:48:08;99293.69;;;8.10;90.43
6144;BME280;3103;49.492;8.474;2024-03-02T01:50:35;99298.16;;;7.82;91.11
6144;BME280;3103;49.492;8.474;2024-03-02T01:53:03;99296.94;;;7.90;91.62
6144;BME280;3103;49.492;8.474;2024-03-02T01:55:30;99294.34;;;8.00;91.24
6144;BME280;3103;49.492;8.474;2024-03-02T01:57:57;99288.88;;;8.12;90.98
6144;BME280;3103;49.492;8.474;2024-03-02T02:00:26;99291.34;;;7.91;91.32
6144;BME280;3103;49.492;8.474;2024-03-02T02:02:54;99283.75;;;7.83;91.92
6144;BME280;3103;49.492;8.474;2024-03-02T02:05:22;99278.88;;;8.02;91.07
6144;BME280;3103;49.492;8.474;2024-03-02T02:07:49;99285.03;;;8.29;90.46
6144;BME280;3103;49.492;8.474;2024-03-02T02:10:17;99289.81;;;8.22;89.49
6144;BME280;3103;49.492;8.474;2024-03-02T02:12:44;99265.25;;;8.03;89.52
6144;BME280;3103;49.492;8.474;2024-03-02T02:15:22;99289.84;;;8.27;89.41
6144;BME280;3103;49.492;8.474;2024-03-02T02:17:49;99279.19;;;8.06;89.59
6144;BME280;3103;49.492;8.474;2024-03-02T02:20:16;99272.63;;;7.91;90.12
6144;BME280;3103;49.492;8.474;2024-03-02T02:23:03;99280.50;;;8.03;89.46
6144;BME280;3103;49.492;8.474;2024-03-02T02:25:31;99279.00;;;8.12;89.14
6144;BME280;3103;49.492;8.474;2024-03-02T02:27:58;99275.19;;;8.08;89.16
6144;BME280;3103;49.492;8.474;2024-03-02T02:30:27;99272.97;;;8.00;89.08
6144;BME280;3103;49.492;8.474;2024-03-02T02:32:55;99266.50;;;7.74;90.06
6144;BME280;3103;49.492;8.474;2024-03-02T02:35:22;99260.84;;;7.70;90.79
6144;BME280;3103;49.492;8.474;2024-03-02T02:37:52;99266.38;;;7.86;90.76
6144;BME280;3103;49.492;8.474;2024-03-02T02:40:21;99263.34;;;7.77;90.56
6144;BME280;3103;49.492;8.474;2024-03-02T02:42:48;99267.56;;;7.95;90.33
6144;BME280;3103;49.492;8.474;2024-03-02T02:45:16;99271.47;;;8.09;89.29
6144;BME280;3103;49.492;8.474;2024-03-02T02:47:44;99271.22;;;8.11;88.91
6144;BME280;3103;49.492;8.474;2024-03-02T02:50:12;99271.09;;;8.00;89.24
6144;BME280;3103;49.492;8.474;2024-03-02T02:52:40;99262.09;;;7.85;90.13
6144;BME280;3103;49.492;8.474;2024-03-02T02:55:09;99267.13;;;8.03;91.00
6144;BME280;3103;49.492;8.474;2024-03-02T02:57:39;99257.63;;;7.90;90.22
6144;BME280;3103;49.492;8.474;2024-03-02T03:00:11;99270.63;;;7.82;90.94
6144;BME280;3103;49.492;8.474;2024-03-02T03:02:46;99265.69;;;7.73;91.54
6144;BME280;3103;49.492;8.474;2024-03-02T03:05:14;99263.03;;;7.73;91.48
6144;BME280;3103;49.492;8.474;2024-03-02T03:07:42;99256.94;;;7.78;91.01
6144;BME280;3103;49.492;8.474;2024-03-02T03:10:09;99258.47;;;7.74;91.70
6144;BME280;3103;49.492;8.474;2024-03-02T03:12:36;99262.59;;;7.82;91.52
6144;BME280;3103;49.492;8.474;2024-03-02T03:15:04;99249.47;;;7.80;91.34
6144;BME280;3103;49.492;8.474;2024-03-02T03:17:31;99246.03;;;7.85;91.52
6144;BME280;3103;49.492;8.474;2024-03-02T03:19:58;99249.44;;;7.75;90.85
6144;BME280;3103;49.492;8.474;2024-03-02T03:22:25;99247.38;;;7.60;90.82
6144;BME280;3103;49.492;8.474;2024-03-02T03:24:53;99248.19;;;7.61;91.52
6144;BME280;3103;49.492;8.474;2024-03-02T03:27:20;99250.22;;;7.54;91.62
6144;BME280;3103;49.492;8.474;2024-03-02T03:29:47;99242.91;;;7.66;91.94
6144;BME280;3103;49.492;8.474;2024-03-02T03:32:14;99243.50;;;7.51;92.20
6144;BME280;3103;49.492;8.474;2024-03-02T03:34:41;99241.22;;;7.38;92.60
6144;BME280;3103;49.492;8.474;2024-03-02T03:37:08;99240.53;;;7.48;92.07
6144;BME280;3103;49.492;8.474;2024-03-02T03:39:35;99250.84;;;7.39;92.44
6144;BME280;3103;49.492;8.474;2024-03-02T03:42:05;99251.34;;;7.36;93.07
6144;BME280;3103;49.492;8.474;2024-03-02T03:44:32;99242.06;;;7.43;92.67
6144;BME280;3103;49.492;8.474;2024-03-02T03:47:00;99251.66;;;7.39;91.84
6144;BME280;3103;49.492;8.474;2024-03-02T03:49:28;99250.78;;;7.34;91.63
6144;BME280;3103;49.492;8.474;2024-03-02T03:51:55;99237.66;;;7.32;91.85
6144;BME280;3103;49.492;8.474;2024-03-02T03:54:22;99250.47;;;7.52;91.56
6144;BME280;3103;49.492;8.474;2024-03-02T03:56:49;99252.19;;;7.41;92.01
6144;BME280;3103;49.492;8.474;2024-03-02T03:59:16;99247.16;;;7.45;91.68
6144;BME280;3103;49.492;8.474;2024-03-02T04:01:43;99238.84;;;7.41;91.13
6144;BME280;3103;49.492;8.474;2024-03-02T04:04:09;99247.34;;;7.38;91.27
6144;BME280;3103;49.492;8.474;2024-03-02T04:06:36;99245.38;;;7.51;90.97
6144;BME280;3103;49.492;8.474;2024-03-02T04:09:03;99233.56;;;7.47;91.09
6144;BME280;3103;49.492;8.474;2024-03-02T04:11:30;99243.47;;;7.46;90.95
6144;BME280;3103;49.492;8.474;2024-03-02T04:13:57;99236.66;;;7.38;91.50
6144;BME280;3103;49.492;8.474;2024-03-02T04:16:25;99246.34;;;7.44;91.12
6144;BME280;3103;49.492;8.474;2024-03-02T04:18:51;99245.06;;;7.47;90.78
6144;BME280;3103;49.492;8.474;2024-03-02T04:21:19;99245.53;;;7.61;91.04
6144;BME280;3103;49.492;8.474;2024-03-02T04:23:46;99243.28;;;7.74;90.55
6144;BME280;3103;49.492;8.474;2024-03-02T04:26:12;99241.75;;;8.06;90.09
6144;BME280;3103;49.492;8.474;2024-03-02T04:28:39;99246.94;;;7.68;89.76
6144;BME280;3103;49.492;8.474;2024-03-02T04:31:06;99246.44;;;7.71;91.14
6144;BME280;3103;49.492;8.474;2024-03-02T04:33:33;99245.25;;;7.62;90.56
6144;BME280;3103;49.492;8.474;2024-03-02T04:36:00;99246.50;;;7.55;90.82
6144;BME280;3103;49.492;8.474;2024-03-02T04:38:27;99253.31;;;7.45;91.47
6144;BME280;3103;49.492;8.474;2024-03-02T04:40:54;99252.22;;;7.63;92.11
6144;BME280;3103;49.492;8.474;2024-03-02T04:43:20;99251.91;;;7.38;91.73
6144;BME280;3103;49.492;8.474;2024-03-02T04:45:47;99252.16;;;7.36;92.66
6144;BME280;3103;49.492;8.474;2024-03-02T04:48:14;99256.44;;;7.59;92.86
6144;BME280;3103;49.492;8.474;2024-03-02T04:50:41;99252.28;;;7.47;92.61
6144;BME280;3103;49.492;8.474;2024-03-02T04:53:09;99260.22;;;7.41;92.25
6144;BME280;3103;49.492;8.474;2024-03-02T04:55:36;99261.72;;;7.32;92.91
6144;BME280;3103;49.492;8.474;2024-03-02T04:58:06;99266.88;;;7.39;92.79
6144;BME280;3103;49.492;8.474;2024-03-02T05:00:34;99266.13;;;7.43;92.19
6144;BME280;3103;49.492;8.474;2024-03-02T05:03:02;99272.16;;;7.56;92.42
6144;BME280;3103;49.492;8.474;2024-03-02T05:05:29;99269.88;;;7.64;92.03
6144;BME280;3103;49.492;8.474;2024-03-02T05:07:55;99284.81;;;7.60;91.94
6144;BME280;3103;49.492;8.474;2024-03-02T05:10:22;99280.19;;;7.56;91.28
6144;BME280;3103;49.492;8.474;2024-03-02T05:12:49;99287.94;;;7.57;90.91
6144;BME280;3103;49.492;8.474;2024-03-02T05:15:23;99282.94;;;7.61;91.74
6144;BME280;3103;49.492;8.474;2024-03-02T05:17:51;99278.56;;;7.55;91.22
6144;BME280;3103;49.492;8.474;2024-03-02T05:20:18;99288.84;;;7.63;91.83
6144;BME280;3103;49.492;8.474;2024-03-02T05:22:45;99290.16;;;7.43;91.12
6144;BME280;3103;49.492;8.474;2024-03-02T05:25:11;99276.22;;;7.20;92.66
6144;BME280;3103;49.492;8.474;2024-03-02T05:27:38;99284.00;;;7.21;93.27
6144;BME280;3103;49.492;8.474;2024-03-02T05:30:06;99288.88;;;7.07;93.31
6144;BME280;3103;49.492;8.474;2024-03-02T05:32:33;99276.03;;;7.26;93.60
6144;BME280;3103;49.492;8.474;2024-03-02T05:35:01;99276.53;;;7.23;93.51
6144;BME280;3103;49.492;8.474;2024-03-02T05:37:29;99275.63;;;7.18;93.23
6144;BME280;3103;49.492;8.474;2024-03-02T05:39:56;99280.66;;;7.14;93.77
6144;BME280;3103;49.492;8.474;2024-03-02T05:42:23;99278.75;;;7.09;94.17
6144;BME280;3103;49.492;8.474;2024-03-02T05:44:50;99283.53;;;7.07;94.16
6144;BME280;3103;49.492;8.474;2024-03-02T05:47:17;99284.03;;;7.04;94.29
6144;BME280;3103;49.492;8.474;2024-03-02T05:49:44;99273.66;;;6.91;94.74
6144;BME280;3103;49.492;8.474;2024-03-02T05:52:11;99275.44;;;6.85;94.49
6144;BME280;3103;49.492;8.474;2024-03-02T05:54:39;99273.56;;;6.86;94.32
6144;BME280;3103;49.492;8.474;2024-03-02T05:57:06;99291.44;;;6.85;94.68
6144;BME280;3103;49.492;8.474;2024-03-02T05:59:52;99290.56;;;6.97;94.25
6144;BME280;3103;49.492;8.474;2024-03-02T06:02:19;99294.22;;;6.91;94.29
6144;BME280;3103;49.492;8.474;2024-03-02T06:04:45;99297.28;;;6.99;94.04
6144;BME280;3103;49.492;8.474;2024-03-02T06:07:12;99292.81;;;6.88;94.24
6144;BME280;3103;49.492;8.474;2024-03-02T06:09:40;99297.78;;;6.79;94.34
6144;BME280;3103;49.492;8.474;2024-03-02T06:12:08;99302.78;;;6.93;94.63
6144;BME280;3103;49.492;8.474;2024-03-02T06:14:34;99301.81;;;6.82;94.89
6144;BME280;3103;49.492;8.474;2024-03-02T06:17:01;99292.91;;;6.93;94.10
6144;BME280;3103;49.492;8.474;2024-03-02T06:19:28;99306.91;;;6.83;94.34
6144;BME280;3103;49.492;8.474;2024-03-02T06:21:55;99314.66;;;7.02;94.00
6144;BME280;3103;49.492;8.474;2024-03-02T06:24:22;99306.66;;;7.19;93.61
6144;BME280;3103;49.492;8.474;2024-03-02T06:26:49;99307.06;;;7.10;93.28
6144;BME280;3103;49.492;8.474;2024-03-02T06:29:15;99304.47;;;6.82;94.40
6144;BME280;3103;49.492;8.474;2024-03-02T06:31:42;99312.00;;;6.85;95.28
6144;BME280;3103;49.492;8.474;2024-03-02T06:34:09;99311.84;;;6.92;94.79
6144;BME280;3103;49.492;8.474;2024-03-02T06:36:36;99315.59;;;6.91;94.96
6144;BME280;3103;49.492;8.474;2024-03-02T06:39:03;99316.72;;;6.78;95.13
6144;BME280;3103;49.492;8.474;2024-03-02T06:41:30;99315.97;;;6.82;95.38
6144;BME280;3103;49.492;8.474;2024-03-02T06:43:58;99326.41;;;7.01;95.32
6144;BME280;3103;49.492;8.474;2024-03-02T06:46:28;99312.50;;;6.82;95.25
6144;BME280;3103;49.492;8.474;2024-03-02T06:48:55;99311.63;;;6.93;95.18
6144;BME280;3103;49.492;8.474;2024-03-02T06:51:22;99300.81;;;6.88;95.05
6144;BME280;3103;49.492;8.474;2024-03-02T06:53:49;99313.72;;;6.91;94.66
6144;BME280;3103;49.492;8.474;2024-03-02T06:56:16;99311.19;;;7.01;93.94
6144;BME280;3103;49.492;8.474;2024-03-02T06:58:43;99329.66;;;7.20;93.35
6144;BME280;3103;49.492;8.474;2024-03-02T07:01:10;99322.69;;;7.19;93.04
6144;BME280;3103;49.492;8.474;2024-03-02T07:03:38;99321.56;;;6.98;93.24
6144;BME280;3103;49.492;8.474;2024-03-02T07:06:07;99335.00;;;7.20;93.15
6144;BME280;3103;49.492;8.474;2024-03-02T07:08:33;99325.19;;;7.25;91.71
6144;BME280;3103;49.492;8.474;2024-03-02T07:11:00;99329.06;;;7.18;92.16
6144;BME280;3103;49.492;8.474;2024-03-02T07:13:28;99316.13;;;7.09;92.66
6144;BME280;3103;49.492;8.474;2024-03-02T07:15:55;99317.56;;;7.17;92.18
6144;BME280;3103;49.492;8.474;2024-03-02T07:18:31;99325.56;;;7.51;92.06
6144;BME280;3103;49.492;8.474;2024-03-02T07:20:58;99316.91;;;7.43;91.05
6144;BME280;3103;49.492;8.474;2024-03-02T07:23:27;99320.72;;;7.31;91.76
6144;BME280;3103;49.492;8.474;2024-03-02T07:25:54;99328.97;;;7.46;91.06
6144;BME280;3103;49.492;8.474;2024-03-02T07:28:27;99329.09;;;7.56;90.92
6144;BME280;3103;49.492;8.474;2024-03-02T07:31:01;99334.03;;;7.86;89.69
6144;BME280;3103;49.492;8.474;2024-03-02T07:33:28;99342.47;;;7.95;88.41
6144;BME280;3103;49.492;8.474;2024-03-02T07:35:55;99339.22;;;8.37;86.23
6144;BME280;3103;49.492;8.474;2024-03-02T07:38:23;99349.16;;;8.63;84.64
6144;BME280;3103;49.492;8.474;2024-03-02T07:40:50;99347.81;;;8.92;84.53
6144;BME280;3103;49.492;8.474;2024-03-02T07:43:17;99354.44;;;9.54;81.69
6144;BME280;3103;49.492;8.474;2024-03-02T07:45:46;99350.13;;;11.29;73.37
6144;BME280;3103;49.492;8.474;2024-03-02T07:48:14;99361.31;;;12.02;68.61
6144;BME280;3103;49.492;8.474;2024-03-02T07:50:41;99370.94;;;12.73;64.24
6144;BME280;3103;49.492;8.474;2024-03-02T07:53:10;99362.44;;;12.51;64.58
6144;BME280;3103;49.492;8.474;2024-03-02T07:55:38;99363.53;;;11.70;66.06
6144;BME280;3103;49.492;8.474;2024-03-02T07:58:06;99365.97;;;10.90;69.38
6144;BME280;3103;49.492;8.474;2024-03-02T08:00:33;99361.81;;;10.31;71.85
6144;BME280;3103;49.492;8.474;2024-03-02T08:03:00;99357.94;;;10.12;73.64
6144;BME280;3103;49.492;8.474;2024-03-02T08:05:27;99366.84;;;10.18;73.29
6144;BME280;3103;49.492;8.474;2024-03-02T08:07:55;99365.00;;;10.23;73.94
6144;BME280;3103;49.492;8.474;2024-03-02T08:10:21;99361.59;;;10.43;72.84
6144;BME280;3103;49.492;8.474;2024-03-02T08:12:48;99362.13;;;10.45;74.49
6144;BME280;3103;49.492;8.474;2024-03-02T08:15:15;99362.13;;;10.55;72.11
6144;BME280;3103;49.492;8.474;2024-03-02T08:17:42;99367.59;;;10.96;74.10
6144;BME280;3103;49.492;8.474;2024-03-02T08:20:12;99363.28;;;10.85;69.52
6144;BME280;3103;49.492;8.474;2024-03-02T08:22:39;99364.56;;;10.47;71.02
6144;BME280;3103;49.492;8.474;2024-03-02T08:25:07;99359.72;;;10.49;71.41
6144;BME280;3103;49.492;8.474;2024-03-02T08:27:35;99365.91;;;10.49;70.51
6144;BME280;3103;49.492;8.474;2024-03-02T08:30:02;99356.78;;;10.55;71.65
6144;BME280;3103;49.492;8.474;2024-03-02T08:32:33;99356.50;;;10.47;70.63
6144;BME280;3103;49.492;8.474;2024-03-02T08:35:01;99359.97;;;10.42;72.30
6144;BME280;3103;49.492;8.474;2024-03-02T08:37:29;99358.53;;;10.19;71.64
6144;BME280;3103;49.492;8.474;2024-03-02T08:39:56;99361.00;;;10.31;72.60
6144;BME280;3103;49.492;8.474;2024-03-02T08:42:23;99361.44;;;10.12;72.35
6144;BME280;3103;49.492;8.474;2024-03-02T08:44:50;99367.47;;;10.30;70.95
6144;BME280;3103;49.492;8.474;2024-03-02T08:47:18;99361.56;;;10.28;70.79
6144;BME280;3103;49.492;8.474;2024-03-02T08:49:45;99362.13;;;10.45;70.93
6144;BME280;3103;49.492;8.474;2024-03-02T08:52:12;99365.81;;;10.24;70.21
6144;BME280;3103;49.492;8.474;2024-03-02T08:54:39;99358.53;;;10.19;70.37
6144;BME280;3103;49.492;8.474;2024-03-02T08:57:06;99353.97;;;10.20;70.47
6144;BME280;3103;49.492;8.474;2024-03-02T08:59:34;99352.19;;;10.46;70.13
6144;BME280;3103;49.492;8.474;2024-03-02T09:02:01;99356.53;;;10.67;69.23
6144;BME280;3103;49.492;8.474;2024-03-02T09:04:28;99357.94;;;11.05;67.58
6144;BME280;3103;49.492;8.474;2024-03-02T09:07:01;99358.47;;;11.22;65.50
6144;BME280;3103;49.492;8.474;2024-03-02T09:09:28;99354.16;;;11.37;66.85
6144;BME280;3103;49.492;8.474;2024-03-02T09:11:54;99354.63;;;11.74;65.58
6144;BME280;3103;49.492;8.474;2024-03-02T09:14:24;99364.31;;;11.80;63.38
6144;BME280;3103;49.492;8.474;2024-03-02T09:16:51;99357.75;;;12.17;62.71
6144;BME280;3103;49.492;8.474;2024-03-02T09:19:18;99349.66;;;13.11;58.54
6144;BME280;3103;49.492;8.474;2024-03-02T09:21:45;99357.53;;;14.13;56.39
6144;BME280;3103;49.492;8.474;2024-03-02T09:24:12;99362.91;;;14.79;54.40
6144;BME280;3103;49.492;8.474;2024-03-02T09:26:44;99357.81;;;14.78;53.63
6144;BME280;3103;49.492;8.474;2024-03-02T09:29:11;99350.75;;;14.96;52.37
6144;BME280;3103;49.492;8.474;2024-03-02T09:31:42;99359.53;;;14.50;52.77
6144;BME280;3103;49.492;8.474;2024-03-02T09:34:09;99353.38;;;14.63;53.40
6144;BME280;3103;49.492;8.474;2024-03-02T09:36:36;99351.19;;;15.03;53.15
6144;BME280;3103;49.492;8.474;2024-03-02T09:39:03;99355.22;;;15.19;52.08
6144;BME280;3103;49.492;8.474;2024-03-02T09:41:32;99349.72;;;15.57;51.13
6144;BME280;3103;49.492;8.474;2024-03-02T09:44:00;99346.50;;;15.08;51.80
6144;BME280;3103;49.492;8.474;2024-03-02T09:46:27;99349.81;;;14.49;54.08
6144;BME280;3103;49.492;8.474;2024-03-02T09:48:54;99348.53;;;13.75;57.12
6144;BME280;3103;49.492;8.474;2024-03-02T09:51:22;99338.75;;;13.55;57.27
6144;BME280;3103;49.492;8.474;2024-03-02T09:53:49;99343.34;;;13.54;57.30
6144;BME280;3103;49.492;8.474;2024-03-02T09:56:39;99341.31;;;13.94;57.04
6144;BME280;3103;49.492;8.474;2024-03-02T09:59:06;99332.81;;;13.82;56.48
6144;BME280;3103;49.492;8.474;2024-03-02T10:01:33;99340.50;;;13.70;56.95
6144;BME280;3103;49.492;8.474;2024-03-02T10:04:00;99334.34;;;13.88;57.78
6144;BME280;3103;49.492;8.474;2024-03-02T10:06:29;99334.00;;;13.94;57.54
6144;BME280;3103;49.492;8.474;2024-03-02T10:08:56;99333.53;;;14.11;56.78
6144;BME280;3103;49.492;8.474;2024-03-02T10:11:34;99328.66;;;13.89;57.23
6144;BME280;3103;49.492;8.474;2024-03-02T10:14:05;99330.03;;;13.87;57.32
6144;BME280;3103;49.492;8.474;2024-03-02T10:16:36;99328.34;;;13.91;58.13
6144;BME280;3103;49.492;8.474;2024-03-02T10:19:22;99327.72;;;13.99;57.74
6144;BME280;3103;49.492;8.474;2024-03-02T10:21:51;99326.72;;;13.95;57.53
6144;BME280;3103;49.492;8.474;2024-03-02T10:24:20;99320.41;;;13.81;57.77
6144;BME280;3103;49.492;8.474;2024-03-02T10:26:51;99327.22;;;13.97;56.39
6144;BME280;3103;49.492;8.474;2024-03-02T10:29:18;99323.41;;;14.22;56.05
6144;BME280;3103;49.492;8.474;2024-03-02T10:31:46;99324.22;;;14.41;55.74
6144;BME280;3103;49.492;8.474;2024-03-02T10:34:14;99329.47;;;14.33;55.39
6144;BME280;3103;49.492;8.474;2024-03-02T10:36:43;99321.53;;;13.99;55.62
6144;BME280;3103;49.492;8.474;2024-03-02T10:39:13;99321.22;;;14.43;54.99
6144;BME280;3103;49.492;8.474;2024-03-02T10:41:41;99310.78;;;14.74;52.76
6144;BME280;3103;49.492;8.474;2024-03-02T10:44:09;99317.53;;;14.58;52.58
6144;BME280;3103;49.492;8.474;2024-03-02T10:46:37;99308.75;;;14.47;52.47
6144;BME280;3103;49.492;8.474;2024-03-02T10:49:05;99308.34;;;14.35;52.42
6144;BME280;3103;49.492;8.474;2024-03-02T10:51:35;99301.16;;;14.06;53.71
6144;BME280;3103;49.492;8.474;2024-03-02T10:54:04;99301.88;;;13.93;54.41
6144;BME280;3103;49.492;8.474;2024-03-02T10:56:42;99296.81;;;13.62;54.44
6144;BME280;3103;49.492;8.474;2024-03-02T10:59:26;99289.44;;;13.73;55.08
6144;BME280;3103;49.492;8.474;2024-03-02T11:01:56;99292.69;;;13.70;53.78
6144;BME280;3103;49.492;8.474;2024-03-02T11:04:31;99287.88;;;13.67;53.58
6144;BME280;3103;49.492;8.474;2024-03-02T11:07:02;99283.72;;;13.99;54.39
6144;BME280;3103;49.492;8.474;2024-03-02T11:09:31;99287.84;;;13.91;52.45
6144;BME280;3103;49.492;8.474;2024-03-02T11:12:19;99288.38;;;13.93;53.99
6144;BME280;3103;49.492;8.474;2024-03-02T11:14:55;99284.03;;;14.35;53.57
6144;BME280;3103;49.492;8.474;2024-03-02T11:17:23;99284.78;;;14.59;50.78
6144;BME280;3103;49.492;8.474;2024-03-02T11:19:53;99284.34;;;14.71;48.73
6144;BME280;3103;49.492;8.474;2024-03-02T11:22:20;99276.69;;;14.92;48.29
6144;BME280;3103;49.492;8.474;2024-03-02T11:24:49;99275.34;;;14.94;48.40
6144;BME280;3103;49.492;8.474;2024-03-02T11:33:09;99252.16;;;14.88;48.75
6144;BME280;3103;49.492;8.474;2024-03-02T11:35:43;99240.97;;;14.95;47.87
6144;BME280;3103;49.492;8.474;2024-03-02T11:38:14;99243.78;;;15.03;48.33
6144;BME280;3103;49.492;8.474;2024-03-02T11:40:42;99242.25;;;14.83;47.59
6144;BME280;3103;49.492;8.474;2024-03-02T11:43:09;99237.53;;;14.57;46.68
6144;BME280;3103;49.492;8.474;2024-03-02T11:45:38;99242.56;;;14.63;48.64
6144;BME280;3103;49.492;8.474;2024-03-02T11:48:14;99230.16;;;14.95;45.69
6144;BME280;3103;49.492;8.474;2024-03-02T11:50:47;99244.25;;;14.92;47.76
6144;BME280;3103;49.492;8.474;2024-03-02T11:53:14;99232.13;;;14.89;47.25
6144;BME280;3103;49.492;8.474;2024-03-02T11:55:41;99236.28;;;15.00;46.07
6144;BME280;3103;49.492;8.474;2024-03-02T11:58:14;99235.16;;;15.01;46.49
6144;BME280;3103;49.492;8.474;2024-03-02T12:00:41;99217.34;;;15.00;44.69
6144;BME280;3103;49.492;8.474;2024-03-02T12:03:12;99216.13;;;14.93;45.43
6144;BME280;3103;49.492;8.474;2024-03-02T12:05:39;99218.22;;;14.82;47.10
6144;BME280;3103;49.492;8.474;2024-03-02T12:08:07;99209.72;;;15.02;48.43
6144;BME280;3103;49.492;8.474;2024-03-02T12:10:35;99209.19;;;14.87;46.21
6144;BME280;3103;49.492;8.474;2024-03-02T12:13:06;99203.59;;;14.83;46.58
6144;BME280;3103;49.492;8.474;2024-03-02T12:15:39;99199.50;;;14.99;46.00
6144;BME280;3103;49.492;8.474;2024-03-02T12:18:07;99203.47;;;14.88;46.41
6144;BME280;3103;49.492;8.474;2024-03-02T12:20:35;99204.06;;;14.71;46.52
6144;BME280;3103;49.492;8.474;2024-03-02T12:23:04;99202.09;;;14.91;48.55
6144;BME280;3103;49.492;8.474;2024-03-02T12:25:32;99200.38;;;14.81;45.54
6144;BME280;3103;49.492;8.474;2024-03-02T12:28:02;99196.09;;;14.61;46.23
6144;BME280;3103;49.492;8.474;2024-03-02T12:30:31;99199.38;;;14.91;47.82
6144;BME280;3103;49.492;8.474;2024-03-02T12:33:03;99195.09;;;15.03;45.98
6144;BME280;3103;49.492;8.474;2024-03-02T12:35:31;99201.00;;;15.05;45.75
6144;BME280;3103;49.492;8.474;2024-03-02T12:38:05;99186.19;;;15.03;44.71
6144;BME280;3103;49.492;8.474;2024-03-02T12:40:36;99188.09;;;15.02;47.02
6144;BME280;3103;49.492;8.474;2024-03-02T12:43:07;99185.50;;;15.11;46.28
6144;BME280;3103;49.492;8.474;2024-03-02T12:45:37;99170.84;;;14.84;46.07
6144;BME280;3103;49.492;8.474;2024-03-02T12:48:05;99173.00;;;14.69;45.79
6144;BME280;3103;49.492;8.474;2024-03-02T12:50:33;99166.81;;;14.68;46.92
6144;BME280;3103;49.492;8.474;2024-03-02T12:53:00;99163.00;;;14.69;47.75
6144;BME280;3103;49.492;8.474;2024-03-02T12:55:29;99158.00;;;14.76;48.43
6144;BME280;3103;49.492;8.474;2024-03-02T12:57:56;99161.13;;;14.83;45.73
6144;BME280;3103;49.492;8.474;2024-03-02T13:00:26;99162.28;;;14.77;45.28
6144;BME280;3103;49.492;8.474;2024-03-02T13:02:53;99146.44;;;14.57;45.54
6144;BME280;3103;49.492;8.474;2024-03-02T13:05:21;99148.47;;;14.65;46.74
6144;BME280;3103;49.492;8.474;2024-03-02T13:07:50;99153.28;;;14.68;46.91
6144;BME280;3103;49.492;8.474;2024-03-02T13:10:17;99139.44;;;14.56;47.96
6144;BME280;3103;49.492;8.474;2024-03-02T13:12:45;99153.34;;;14.63;46.27
6144;BME280;3103;49.492;8.474;2024-03-02T13:15:15;99156.09;;;14.77;46.00
6144;BME280;3103;49.492;8.474;2024-03-02T13:17:47;99146.16;;;14.59;46.35
6144;BME280;3103;49.492;8.474;2024-03-02T13:20:15;99152.34;;;14.59;46.62
6144;BME280;3103;49.492;8.474;2024-03-02T13:22:48;99136.56;;;14.66;45.65
6144;BME280;3103;49.492;8.474;2024-03-02T13:25:16;99148.78;;;14.77;45.90
6144;BME280;3103;49.492;8.474;2024-03-02T13:27:50;99133.88;;;14.66;46.40
6144;BME280;3103;49.492;8.474;2024-03-02T13:30:20;99136.28;;;14.81;46.26
6144;BME280;3103;49.492;8.474;2024-03-02T13:32:47;99128.97;;;14.82;46.08
6144;BME280;3103;49.492;8.474;2024-03-02T13:35:14;99137.72;;;14.93;46.77
6144;BME280;3103;49.492;8.474;2024-03-02T13:37:44;99130.16;;;14.90;45.96
6144;BME280;3103;49.492;8.474;2024-03-02T13:40:14;99132.88;;;14.90;47.64
6144;BME280;3103;49.492;8.474;2024-03-02T13:42:44;99130.59;;;14.97;46.43